createdAt,value
2019-02-25T00:00:40.473Z,179.83
2019-02-25T00:03:07.869Z,187.20
2019-02-25T00:05:35.318Z,186.43
2019-02-25T00:08:02.648Z,179.83
2019-02-25T00:10:31.280Z,177.90
2019-02-25T00:12:58.834Z,191.67
2019-02-25T00:15:26.127Z,179.90
2019-02-25T00:17:53.554Z,182.87
2019-02-25T00:20:20.909Z,172.77
2019-02-25T00:22:49.581Z,176.97
2019-02-25T00:25:16.929Z,184.63
2019-02-25T00:27:44.306Z,177.83
2019-02-25T00:30:12.428Z,177.17
2019-02-25T00:32:40.851Z,174.00
2019-02-25T00:35:08.216Z,167.97
2019-02-25T00:37:35.623Z,168.97
2019-02-25T00:40:03.150Z,170.60
2019-02-25T00:42:30.634Z,178.33
2019-02-25T00:44:58.101Z,185.00
2019-02-25T00:47:25.489Z,171.67
2019-02-25T00:49:54.478Z,177.20
2019-02-25T00:52:21.899Z,183.13
2019-02-25T00:54:49.507Z,179.20
2019-02-25T00:57:18.499Z,173.30
2019-02-25T00:59:45.980Z,175.97
2019-02-25T01:02:13.326Z,166.03
2019-02-25T01:04:40.804Z,168.80
2019-02-25T01:07:08.322Z,162.43
2019-02-25T01:09:35.736Z,166.70
2019-02-25T01:12:03.189Z,159.43
2019-02-25T01:14:30.554Z,147.00
2019-02-25T01:16:57.878Z,146.53
2019-02-25T01:19:25.256Z,153.00
2019-02-25T01:21:52.826Z,148.17
2019-02-25T01:24:20.219Z,172.27
2019-02-25T01:26:49.205Z,172.77
2019-02-25T01:29:16.694Z,170.33
2019-02-25T01:31:44.430Z,173.50
2019-02-25T01:34:13.082Z,178.33
2019-02-25T01:36:40.508Z,180.50
2019-02-25T01:39:08.832Z,202.20
2019-02-25T01:41:36.285Z,200.60
2019-02-25T01:44:03.646Z,202.63
2019-02-25T01:46:31.004Z,222.60
2019-02-25T01:48:58.355Z,223.23
2019-02-25T01:51:25.781Z,210.70
2019-02-25T01:53:53.166Z,209.10
2019-02-25T01:56:20.563Z,199.83
2019-02-25T01:58:48.087Z,187.77
2019-02-25T02:01:15.514Z,162.67
2019-02-25T02:03:42.888Z,161.30
2019-02-25T02:06:10.263Z,146.13
2019-02-25T02:08:37.739Z,168.83
2019-02-25T02:11:05.157Z,167.80
2019-02-25T02:13:32.512Z,174.73
2019-02-25T02:15:59.985Z,168.17
2019-02-25T02:18:27.374Z,165.67
2019-02-25T02:20:54.679Z,164.30
2019-02-25T02:23:22.039Z,168.47
2019-02-25T02:25:49.402Z,156.93
2019-02-25T02:28:16.848Z,172.13
2019-02-25T02:30:44.213Z,165.67
2019-02-25T02:33:11.597Z,152.63
2019-02-25T02:35:39.948Z,156.23
2019-02-25T02:38:07.328Z,146.87
2019-02-25T02:40:34.672Z,152.90
2019-02-25T02:43:02.112Z,141.33
2019-02-25T02:45:37.614Z,147.97
2019-02-25T02:48:09.526Z,150.17
2019-02-25T02:50:36.861Z,148.30
2019-02-25T02:53:04.545Z,158.90
2019-02-25T02:55:31.918Z,151.73
2019-02-25T02:57:59.443Z,158.50
2019-02-25T03:00:26.816Z,154.87
2019-02-25T03:02:54.235Z,129.80
2019-02-25T03:05:21.588Z,125.10
2019-02-25T03:07:49.013Z,119.67
2019-02-25T03:10:17.167Z,118.67
2019-02-25T03:12:44.519Z,113.50
2019-02-25T03:15:13.252Z,116.13
2019-02-25T03:17:40.587Z,116.57
2019-02-25T03:20:09.296Z,112.77
2019-02-25T03:22:36.660Z,111.93
2019-02-25T03:25:07.819Z,98.77
2019-02-25T03:27:35.219Z,108.53
2019-02-25T03:30:03.100Z,104.70
2019-02-25T03:32:30.468Z,94.30
2019-02-25T03:34:57.843Z,92.60
2019-02-25T03:37:25.187Z,104.77
2019-02-25T03:39:52.630Z,110.63
2019-02-25T03:42:20.025Z,109.90
2019-02-25T03:44:47.373Z,115.97
2019-02-25T03:47:14.700Z,119.33
2019-02-25T03:49:42.043Z,115.50
2019-02-25T03:52:09.469Z,114.70
2019-02-25T03:54:36.908Z,106.93
2019-02-25T03:57:04.488Z,113.20
2019-02-25T03:59:31.872Z,99.13
2019-02-25T04:01:59.861Z,96.60
2019-02-25T04:04:27.188Z,89.60
2019-02-25T04:06:54.541Z,88.60
2019-02-25T04:09:21.895Z,92.30
2019-02-25T04:11:49.308Z,90.57
2019-02-25T04:14:18.656Z,93.73
2019-02-25T04:16:46.083Z,84.53
2019-02-25T04:19:13.532Z,84.97
2019-02-25T04:21:40.867Z,99.37
2019-02-25T04:24:08.402Z,106.33
2019-02-25T04:26:35.839Z,101.27
2019-02-25T04:29:03.181Z,100.40
2019-02-25T04:31:30.536Z,101.23
2019-02-25T04:33:57.963Z,110.83
2019-02-25T04:36:25.409Z,98.90
2019-02-25T04:38:52.837Z,89.60
2019-02-25T04:41:20.194Z,93.03
2019-02-25T04:43:47.619Z,87.40
2019-02-25T04:46:15.946Z,79.33
2019-02-25T04:48:43.347Z,82.80
2019-02-25T04:51:10.775Z,81.33
2019-02-25T04:53:38.282Z,83.57
2019-02-25T04:56:05.675Z,83.33
2019-02-25T04:58:33.022Z,80.80
2019-02-25T05:01:00.468Z,79.53
2019-02-25T05:03:29.358Z,68.70
2019-02-25T05:05:56.752Z,75.17
2019-02-25T05:08:24.175Z,69.43
2019-02-25T05:10:51.551Z,72.60
2019-02-25T05:13:18.876Z,69.93
2019-02-25T05:15:46.271Z,70.60
2019-02-25T05:18:13.703Z,67.30
2019-02-25T05:20:41.085Z,67.93
2019-02-25T05:23:08.523Z,61.53
2019-02-25T05:25:35.960Z,66.17
2019-02-25T05:28:03.365Z,64.30
2019-02-25T05:30:31.185Z,62.17
2019-02-25T05:32:59.785Z,58.83
2019-02-25T05:35:27.224Z,59.63
2019-02-25T05:37:54.955Z,63.73
2019-02-25T05:40:22.293Z,60.43
2019-02-25T05:42:49.808Z,64.57
2019-02-25T05:45:17.295Z,60.57
2019-02-25T05:47:44.639Z,62.80
2019-02-25T05:50:13.122Z,66.67
2019-02-25T05:52:40.592Z,67.60
2019-02-25T05:55:09.579Z,87.33
2019-02-25T05:57:36.908Z,121.63
2019-02-25T06:00:06.033Z,134.03
2019-02-25T06:02:33.465Z,139.07
2019-02-25T06:05:00.873Z,129.30
2019-02-25T06:07:28.340Z,136.77
2019-02-25T06:09:55.732Z,144.20
2019-02-25T06:12:23.054Z,147.40
2019-02-25T06:14:50.487Z,137.10
2019-02-25T06:17:17.912Z,158.63
2019-02-25T06:19:45.396Z,150.17
2019-02-25T06:22:12.869Z,143.53
2019-02-25T06:24:40.291Z,150.30
2019-02-25T06:27:07.696Z,135.87
2019-02-25T06:29:35.133Z,128.63
2019-02-25T06:32:02.516Z,106.27
2019-02-25T06:34:30.004Z,103.40
2019-02-25T06:36:57.414Z,95.97
2019-02-25T06:39:24.835Z,93.13
2019-02-25T06:41:52.318Z,119.80
2019-02-25T06:44:20.141Z,122.67
2019-02-25T06:46:47.602Z,113.57
2019-02-25T06:49:14.958Z,107.23
2019-02-25T06:51:42.339Z,102.13
2019-02-25T06:54:09.849Z,109.90
2019-02-25T06:56:37.281Z,116.70
2019-02-25T06:59:04.838Z,133.60
2019-02-25T07:01:32.294Z,123.70
2019-02-25T07:04:10.272Z,133.30
2019-02-25T07:06:43.553Z,122.93
2019-02-25T07:09:12.817Z,123.40
2019-02-25T07:11:47.680Z,115.07
2019-02-25T07:14:31.763Z,118.43
2019-02-25T07:17:00.767Z,118.73
2019-02-25T07:19:32.881Z,111.73
2019-02-25T07:22:05.975Z,110.53
2019-02-25T07:24:35.117Z,92.70
2019-02-25T07:27:07.013Z,82.07
2019-02-25T07:29:48.361Z,86.00
2019-02-25T07:32:17.586Z,68.60
2019-02-25T07:34:52.188Z,65.17
2019-02-25T07:37:33.051Z,63.43
2019-02-25T07:40:17.406Z,61.37
2019-02-25T07:42:51.850Z,56.10
2019-02-25T07:45:20.969Z,51.53
2019-02-25T07:47:52.882Z,57.87
2019-02-25T07:50:30.913Z,42.50
2019-02-25T07:53:02.737Z,48.47
2019-02-25T07:55:37.581Z,53.30
2019-02-25T07:58:06.577Z,47.53
2019-02-25T08:00:35.527Z,44.90
2019-02-25T08:03:04.546Z,45.70
2019-02-25T08:05:33.627Z,46.83
2019-02-25T08:08:08.752Z,41.27
2019-02-25T08:10:54.187Z,45.03
2019-02-25T08:13:26.341Z,50.53
2019-02-25T08:15:58.183Z,52.83
2019-02-25T08:18:37.079Z,45.07
2019-02-25T08:21:18.343Z,49.23
2019-02-25T08:23:53.697Z,55.27
2019-02-25T08:26:23.015Z,57.13
2019-02-25T08:28:52.005Z,54.47
2019-02-25T08:31:33.186Z,48.83
2019-02-25T08:34:05.200Z,48.63
2019-02-25T08:37:01.800Z,48.17
2019-02-25T08:39:26.423Z,53.33
2019-02-25T08:41:55.487Z,47.83
2019-02-25T08:44:27.110Z,47.90
2019-02-25T08:46:56.192Z,46.90
2019-02-25T08:49:25.189Z,42.73
2019-02-25T08:51:52.543Z,42.87
2019-02-25T08:54:20.056Z,39.50
2019-02-25T08:56:47.417Z,43.53
2019-02-25T08:59:14.833Z,45.60
2019-02-25T09:01:42.286Z,45.03
2019-02-25T09:04:09.725Z,47.47
2019-02-25T09:06:37.196Z,34.20
2019-02-25T09:09:05.392Z,38.70
2019-02-25T09:11:32.809Z,34.10
2019-02-25T09:14:00.219Z,36.30
2019-02-25T09:16:27.975Z,39.60
2019-02-25T09:18:55.341Z,37.63
2019-02-25T09:21:31.385Z,38.47
2019-02-25T09:23:51.910Z,36.37
2019-02-25T09:26:19.328Z,35.37
2019-02-25T09:28:46.765Z,47.20
2019-02-25T09:31:14.099Z,45.90
2019-02-25T09:33:41.811Z,41.53
2019-02-25T09:36:09.259Z,43.50
2019-02-25T09:38:36.633Z,43.77
2019-02-25T09:41:05.985Z,40.73
2019-02-25T09:43:33.363Z,42.03
2019-02-25T09:46:00.780Z,45.87
2019-02-25T09:48:28.588Z,47.07
2019-02-25T09:50:56.100Z,47.27
2019-02-25T09:53:23.413Z,46.67
2019-02-25T09:55:51.669Z,44.27
2019-02-25T09:58:20.510Z,43.63
2019-02-25T10:00:48.908Z,41.83
2019-02-25T10:03:16.242Z,45.07
2019-02-25T10:05:43.630Z,35.40
2019-02-25T10:08:11.046Z,38.43
2019-02-25T10:10:39.578Z,42.10
2019-02-25T10:13:07.021Z,34.47
2019-02-25T10:15:34.340Z,39.07
2019-02-25T10:18:01.682Z,43.10
2019-02-25T10:20:29.054Z,43.23
2019-02-25T10:22:56.404Z,40.53
2019-02-25T10:25:23.729Z,42.73
2019-02-25T10:27:51.181Z,42.83
2019-02-25T10:30:20.200Z,40.40
2019-02-25T10:32:47.594Z,37.43
2019-02-25T10:35:16.586Z,37.13
2019-02-25T10:37:46.894Z,49.23
2019-02-25T10:40:15.533Z,37.87
2019-02-25T10:42:43.635Z,52.37
2019-02-25T10:45:13.489Z,48.93
2019-02-25T10:47:42.009Z,46.30
2019-02-25T10:50:11.636Z,44.73
2019-02-25T10:52:40.788Z,51.43
2019-02-25T10:55:09.631Z,57.57
2019-02-25T10:57:37.008Z,50.73
2019-02-25T11:00:09.525Z,78.00
2019-02-25T11:02:44.184Z,54.20
2019-02-25T11:05:10.101Z,48.07
2019-02-25T11:07:39.670Z,53.77
2019-02-25T11:10:09.596Z,48.90
2019-02-25T11:12:37.050Z,53.43
2019-02-25T11:15:07.376Z,59.57
2019-02-25T11:17:35.548Z,58.60
2019-02-25T11:20:03.793Z,66.30
2019-02-25T11:22:32.139Z,57.97
2019-02-25T11:24:59.510Z,56.93
2019-02-25T11:27:28.492Z,59.97
2019-02-25T11:29:56.032Z,68.33
2019-02-25T11:32:24.406Z,58.50
2019-02-25T11:34:52.569Z,60.37
2019-02-25T11:37:22.473Z,57.90
2019-02-25T11:39:50.276Z,60.03
2019-02-25T11:42:20.571Z,56.07
2019-02-25T11:44:47.103Z,50.27
2019-02-25T11:47:14.454Z,52.63
2019-02-25T11:49:41.812Z,42.70
2019-02-25T11:52:09.224Z,48.63
2019-02-25T11:54:36.911Z,45.17
2019-02-25T11:57:06.142Z,43.90
2019-02-25T11:59:34.853Z,44.33
2019-02-25T12:02:02.202Z,55.13
2019-02-25T12:04:29.521Z,48.70
2019-02-25T12:06:56.981Z,48.03
2019-02-25T12:09:24.786Z,47.87
2019-02-25T12:11:52.137Z,48.10
2019-02-25T12:14:19.642Z,49.77
2019-02-25T12:16:47.180Z,49.00
2019-02-25T12:19:17.894Z,46.20
2019-02-25T12:21:43.693Z,44.40
2019-02-25T12:24:11.154Z,41.63
2019-02-25T12:26:38.510Z,43.67
2019-02-25T12:29:10.904Z,44.03
2019-02-25T12:31:34.873Z,42.53
2019-02-25T12:34:02.281Z,45.20
2019-02-25T12:36:29.606Z,43.77
2019-02-25T12:38:57.061Z,46.13
2019-02-25T12:41:27.416Z,47.27
2019-02-25T12:43:54.802Z,43.50
2019-02-25T12:46:22.292Z,43.40
2019-02-25T12:48:49.779Z,43.40
2019-02-25T12:51:17.159Z,43.73
2019-02-25T12:53:44.669Z,48.73
2019-02-25T12:56:12.061Z,38.53
2019-02-25T12:58:39.468Z,43.07
2019-02-25T13:01:06.847Z,48.87
2019-02-25T13:03:34.309Z,45.50
2019-02-25T13:06:01.769Z,40.77
2019-02-25T13:08:29.111Z,42.67
2019-02-25T13:10:56.612Z,36.13
2019-02-25T13:13:24.052Z,38.13
2019-02-25T13:15:51.567Z,42.97
2019-02-25T13:18:19.060Z,40.83
2019-02-25T13:20:46.386Z,36.27
2019-02-25T13:23:13.724Z,35.77
2019-02-25T13:25:41.141Z,39.37
2019-02-25T13:28:08.559Z,41.90
2019-02-25T13:30:36.095Z,43.63
2019-02-25T13:33:03.415Z,44.67
2019-02-25T13:35:30.817Z,49.33
2019-02-25T13:37:58.207Z,40.17
2019-02-25T13:40:25.530Z,42.43
2019-02-25T13:42:53.035Z,39.80
2019-02-25T13:45:20.943Z,47.23
2019-02-25T13:47:48.295Z,41.87
2019-02-25T13:50:16.075Z,39.57
2019-02-25T13:52:48.454Z,40.53
2019-02-25T13:55:12.779Z,42.93
2019-02-25T13:57:40.571Z,50.07
2019-02-25T14:00:09.607Z,45.93
2019-02-25T14:02:37.206Z,52.17
2019-02-25T14:05:05.624Z,44.73
2019-02-25T14:07:34.289Z,49.97
2019-02-25T14:10:01.851Z,46.10
2019-02-25T14:12:29.303Z,47.37
2019-02-25T14:14:56.633Z,40.53
2019-02-25T14:17:26.304Z,43.80
2019-02-25T14:19:54.185Z,49.87
2019-02-25T14:22:21.578Z,45.60
2019-02-25T14:24:50.257Z,42.33
2019-02-25T14:27:27.155Z,39.37
2019-02-25T14:29:55.706Z,36.50
2019-02-25T14:32:23.186Z,43.17
2019-02-25T14:34:53.462Z,44.83
2019-02-25T14:37:21.031Z,48.43
2019-02-25T14:39:51.616Z,48.27
2019-02-25T14:42:18.871Z,52.33
2019-02-25T14:44:46.682Z,59.27
2019-02-25T14:47:20.470Z,56.30
2019-02-25T14:49:43.104Z,50.70
2019-02-25T14:52:10.610Z,51.80
2019-02-25T14:54:38.037Z,54.40
2019-02-25T14:57:05.407Z,52.30
2019-02-25T14:59:32.750Z,52.10
2019-02-25T15:02:02.156Z,49.90
2019-02-25T15:04:29.278Z,53.23
2019-02-25T15:06:56.697Z,51.60
2019-02-25T15:09:24.040Z,41.90
2019-02-25T15:11:55.538Z,44.93
2019-02-25T15:14:20.573Z,40.23
2019-02-25T15:16:47.980Z,47.07
2019-02-25T15:19:16.952Z,48.13
2019-02-25T15:21:47.227Z,49.90
2019-02-25T15:24:14.734Z,53.73
2019-02-25T15:26:43.204Z,57.87
2019-02-25T15:29:10.846Z,50.67
2019-02-25T15:31:38.242Z,53.50
2019-02-25T15:34:05.744Z,51.47
2019-02-25T15:36:33.435Z,50.70
2019-02-25T15:39:00.860Z,53.50
2019-02-25T15:41:28.391Z,54.70
2019-02-25T15:43:57.826Z,55.13
2019-02-25T15:46:27.044Z,56.53
2019-02-25T15:48:54.168Z,59.07
2019-02-25T15:51:21.786Z,55.47
2019-02-25T15:53:51.358Z,54.90
2019-02-25T15:56:18.196Z,54.43
2019-02-25T15:58:47.081Z,62.67
2019-02-25T16:01:14.691Z,65.77
2019-02-25T16:03:43.059Z,68.93
2019-02-25T16:06:11.727Z,64.50
2019-02-25T16:08:39.115Z,65.50
2019-02-25T16:11:07.018Z,62.93
2019-02-25T16:13:34.353Z,56.73
2019-02-25T16:16:01.777Z,64.27
2019-02-25T16:18:29.252Z,57.73
2019-02-25T16:20:57.471Z,58.33
2019-02-25T16:23:25.769Z,64.13
2019-02-25T16:25:55.300Z,71.10
2019-02-25T16:28:23.676Z,68.43
2019-02-25T16:30:51.420Z,65.13
2019-02-25T16:33:18.882Z,69.93
2019-02-25T16:35:47.038Z,86.03
2019-02-25T16:38:14.483Z,89.50
2019-02-25T16:40:41.951Z,103.87
2019-02-25T16:43:10.462Z,118.70
2019-02-25T16:45:40.133Z,115.93
2019-02-25T16:48:08.155Z,124.40
2019-02-25T16:50:36.740Z,134.90
2019-02-25T16:53:07.901Z,135.83
2019-02-25T16:55:33.589Z,146.97
2019-02-25T16:58:03.509Z,148.33
2019-02-25T17:00:32.407Z,142.80
2019-02-25T17:03:03.633Z,137.53
2019-02-25T17:05:29.330Z,139.87
2019-02-25T17:07:56.814Z,132.63
2019-02-25T17:10:27.106Z,134.70
2019-02-25T17:12:54.991Z,150.80
2019-02-25T17:15:26.260Z,151.20
2019-02-25T17:17:52.496Z,162.63
2019-02-25T17:20:20.372Z,151.73
2019-02-25T17:22:48.298Z,150.50
2019-02-25T17:25:17.234Z,146.53
2019-02-25T17:27:45.658Z,145.87
2019-02-25T17:30:17.980Z,144.37
2019-02-25T17:32:48.257Z,140.03
2019-02-25T17:35:21.328Z,125.83
2019-02-25T17:37:48.620Z,137.10
2019-02-25T17:40:16.496Z,129.63
2019-02-25T17:42:44.968Z,125.10
2019-02-25T17:45:14.502Z,112.43
2019-02-25T17:47:42.433Z,129.17
2019-02-25T17:50:12.103Z,119.10
2019-02-25T17:52:40.462Z,115.83
2019-02-25T17:55:10.560Z,106.17
2019-02-25T17:57:39.014Z,118.43
2019-02-25T18:00:11.538Z,113.47
2019-02-25T18:02:40.230Z,126.67
2019-02-25T18:05:09.409Z,128.13
2019-02-25T18:07:37.774Z,122.73
2019-02-25T18:10:09.741Z,127.17
2019-02-25T18:12:39.195Z,123.07
2019-02-25T18:15:09.423Z,134.17
2019-02-25T18:17:38.908Z,129.43
2019-02-25T18:20:09.277Z,149.23
2019-02-25T18:22:36.631Z,164.93
2019-02-25T18:25:05.388Z,169.47
2019-02-25T18:27:34.839Z,186.20
2019-02-25T18:30:01.946Z,171.80
2019-02-25T18:32:30.487Z,170.73
2019-02-25T18:35:00.402Z,172.60
2019-02-25T18:37:27.764Z,172.17
2019-02-25T18:39:56.503Z,173.87
2019-02-25T18:42:24.144Z,176.13
2019-02-25T18:44:53.412Z,186.47
2019-02-25T18:47:22.755Z,187.93
2019-02-25T18:49:52.117Z,193.10
2019-02-25T18:52:19.901Z,223.40
2019-02-25T18:54:47.468Z,213.40
2019-02-25T18:57:15.022Z,211.07
2019-02-25T18:59:42.380Z,203.37
2019-02-25T19:02:12.196Z,204.17
2019-02-25T19:04:40.864Z,196.37
2019-02-25T19:07:10.028Z,180.50
2019-02-25T19:09:37.692Z,183.90
2019-02-25T19:12:05.091Z,191.23
2019-02-25T19:14:33.184Z,183.50
2019-02-25T19:17:02.135Z,176.10
2019-02-25T19:19:31.434Z,185.17
2019-02-25T19:21:59.025Z,172.27
2019-02-25T19:24:26.544Z,159.90
2019-02-25T19:26:54.021Z,180.03
2019-02-25T19:29:21.784Z,187.17
2019-02-25T19:31:50.712Z,202.50
2019-02-25T19:34:18.096Z,204.60
2019-02-25T19:36:45.476Z,199.77
2019-02-25T19:39:14.363Z,191.80
2019-02-25T19:41:45.052Z,177.60
2019-02-25T19:44:12.753Z,178.83
2019-02-25T19:46:40.390Z,177.20
2019-02-25T19:49:09.252Z,172.87
2019-02-25T19:51:36.871Z,166.43
2019-02-25T19:54:05.178Z,162.50
2019-02-25T19:56:33.515Z,153.40
2019-02-25T19:59:03.086Z,165.73
2019-02-25T20:01:30.045Z,165.43
2019-02-25T20:03:59.566Z,161.53
2019-02-25T20:06:28.046Z,165.47
2019-02-25T20:08:56.559Z,155.57
2019-02-25T20:11:25.848Z,167.40
2019-02-25T20:13:54.048Z,171.17
2019-02-25T20:16:22.841Z,166.10
2019-02-25T20:18:51.045Z,166.37
2019-02-25T20:21:20.154Z,158.93
2019-02-25T20:23:49.495Z,152.60
2019-02-25T20:26:17.767Z,148.43
2019-02-25T20:28:48.072Z,142.30
2019-02-25T20:31:16.745Z,136.00
2019-02-25T20:33:44.226Z,155.07
2019-02-25T20:36:11.552Z,155.73
2019-02-25T20:38:39.713Z,153.60
2019-02-25T20:41:07.391Z,149.13
2019-02-25T20:43:34.806Z,156.87
2019-02-25T20:46:04.023Z,152.93
2019-02-25T20:48:31.237Z,142.83
2019-02-25T20:51:02.097Z,148.47
2019-02-25T20:53:34.002Z,147.53
2019-02-25T20:56:01.388Z,148.47
2019-02-25T20:58:28.825Z,136.50
2019-02-25T21:00:56.186Z,145.10
2019-02-25T21:03:25.487Z,135.10
2019-02-25T21:05:52.908Z,137.87
2019-02-25T21:08:21.388Z,145.80
2019-02-25T21:10:49.327Z,149.87
2019-02-25T21:13:17.172Z,136.67
2019-02-25T21:15:45.417Z,137.73
2019-02-25T21:18:12.930Z,155.13
2019-02-25T21:20:40.352Z,148.50
2019-02-25T21:23:10.096Z,172.17
2019-02-25T21:25:38.521Z,180.80
2019-02-25T21:28:06.805Z,179.10
2019-02-25T21:30:37.172Z,164.37
2019-02-25T21:33:03.928Z,180.67
2019-02-25T21:35:36.689Z,167.57
2019-02-25T21:38:00.421Z,167.80
2019-02-25T21:40:29.898Z,171.77
2019-02-25T21:42:56.963Z,169.27
2019-02-25T21:45:26.560Z,159.03
2019-02-25T21:47:56.035Z,151.50
2019-02-25T21:50:26.243Z,160.10
2019-02-25T21:52:51.615Z,159.73
2019-02-25T21:55:19.047Z,140.60
2019-02-25T21:57:46.770Z,160.93
2019-02-25T22:00:17.633Z,147.73
2019-02-25T22:02:45.860Z,156.20
2019-02-25T22:05:16.616Z,164.87
2019-02-25T22:07:43.425Z,169.13
2019-02-25T22:10:14.465Z,167.43
2019-02-25T22:12:43.863Z,160.40
2019-02-25T22:15:13.047Z,152.43
2019-02-25T22:17:43.378Z,135.87
2019-02-25T22:20:16.563Z,140.07
2019-02-25T22:22:43.833Z,145.40
2019-02-25T22:25:23.321Z,116.70
2019-02-25T22:27:50.779Z,116.97
2019-02-25T22:30:18.911Z,128.47
2019-02-25T22:32:46.311Z,124.30
2019-02-25T22:35:15.098Z,132.67
2019-02-25T22:37:46.836Z,148.47
2019-02-25T22:40:14.450Z,147.23
2019-02-25T22:42:41.582Z,159.47
2019-02-25T22:45:11.994Z,158.03
2019-02-25T22:47:39.550Z,169.57
2019-02-25T22:50:08.997Z,165.10
2019-02-25T22:52:37.417Z,151.87
2019-02-25T22:55:07.919Z,145.90
2019-02-25T22:57:33.832Z,139.57
2019-02-25T23:00:05.704Z,147.17
2019-02-25T23:02:30.281Z,133.70
2019-02-25T23:04:57.737Z,130.63
2019-02-25T23:07:25.382Z,128.20
2019-02-25T23:09:54.430Z,101.60
2019-02-25T23:12:24.128Z,92.80
2019-02-25T23:14:51.359Z,91.23
2019-02-25T23:17:18.689Z,91.10
2019-02-25T23:19:46.144Z,88.63
2019-02-25T23:22:13.476Z,80.90
2019-02-25T23:24:42.035Z,76.03
2019-02-25T23:27:09.933Z,71.33
2019-02-25T23:29:37.338Z,82.37
2019-02-25T23:32:05.014Z,77.00
2019-02-25T23:34:32.378Z,74.10
2019-02-25T23:36:59.779Z,77.53
2019-02-25T23:39:27.167Z,75.53
2019-02-25T23:41:54.590Z,83.47
2019-02-25T23:44:22.838Z,76.93
2019-02-25T23:46:55.406Z,76.30
2019-02-25T23:49:27.071Z,80.70
2019-02-25T23:51:49.115Z,78.87
2019-02-25T23:54:18.300Z,72.50
2019-02-25T23:56:47.717Z,85.57
2019-02-25T23:59:15.255Z,88.37
